sensor_id;sensor_type;location;lat;lon;timestamp;P1;durP1;ratioP1;P2;durP2;ratioP2
14933;SDS011;7560;51.364;12.384;2023-11-18T00:03:38;5.00;;;3.80;;
14933;SDS011;7560;51.364;12.384;2023-11-18T00:08:40;5.15;;;3.70;;
14933;SDS011;7560;51.364;12.384;2023-11-18T00:13:42;4.35;;;3.40;;
14933;SDS011;7560;51.364;12.384;2023-11-18T00:18:44;4.85;;;3.13;;
14933;SDS011;7560;51.364;12.384;2023-11-18T00:23:46;4.78;;;3.15;;
14933;SDS011;7560;51.364;12.384;2023-11-18T00:28:49;4.15;;;2.42;;
14933;SDS011;7560;51.364;12.384;2023-11-18T00:33:51;4.45;;;2.53;;
14933;SDS011;7560;51.364;12.384;2023-11-18T00:38:53;5.35;;;2.40;;
14933;SDS011;7560;51.364;12.384;2023-11-18T00:43:55;3.47;;;2.45;;
14933;SDS011;7560;51.364;12.384;2023-11-18T00:48:57;3.30;;;2.00;;
14933;SDS011;7560;51.364;12.384;2023-11-18T00:53:59;3.03;;;1.90;;
14933;SDS011;7560;51.364;12.384;2023-11-18T00:59:06;3.60;;;1.95;;
14933;SDS011;7560;51.364;12.384;2023-11-18T01:04:08;2.75;;;2.30;;
14933;SDS011;7560;51.364;12.384;2023-11-18T01:09:10;2.88;;;1.90;;
14933;SDS011;7560;51.364;12.384;2023-11-18T01:14:13;2.88;;;1.67;;
14933;SDS011;7560;51.364;12.384;2023-11-18T01:19:14;2.80;;;2.10;;
14933;SDS011;7560;51.364;12.384;2023-11-18T01:24:16;5.13;;;1.80;;
14933;SDS011;7560;51.364;12.384;2023-11-18T01:29:18;3.17;;;1.98;;
14933;SDS011;7560;51.364;12.384;2023-11-18T01:34:20;2.40;;;1.73;;
14933;SDS011;7560;51.364;12.384;2023-11-18T01:39:24;3.20;;;2.20;;
14933;SDS011;7560;51.364;12.384;2023-11-18T01:44:27;2.65;;;2.03;;
14933;SDS011;7560;51.364;12.384;2023-11-18T01:49:29;2.55;;;2.03;;
14933;SDS011;7560;51.364;12.384;2023-11-18T01:54:31;2.40;;;1.80;;
14933;SDS011;7560;51.364;12.384;2023-11-18T01:59:33;2.85;;;2.20;;
14933;SDS011;7560;51.364;12.384;2023-11-18T02:04:35;2.63;;;2.25;;
14933;SDS011;7560;51.364;12.384;2023-11-18T02:09:38;4.15;;;2.28;;
14933;SDS011;7560;51.364;12.384;2023-11-18T02:14:40;3.35;;;2.22;;
14933;SDS011;7560;51.364;12.384;2023-11-18T02:19:44;7.07;;;2.70;;
14933;SDS011;7560;51.364;12.384;2023-11-18T02:24:46;3.70;;;2.67;;
14933;SDS011;7560;51.364;12.384;2023-11-18T02:29:48;4.88;;;2.50;;
14933;SDS011;7560;51.364;12.384;2023-11-18T02:40:28;3.60;;;2.72;;
14933;SDS011;7560;51.364;12.384;2023-11-18T02:45:34;4.15;;;2.95;;
14933;SDS011;7560;51.364;12.384;2023-11-18T02:50:37;5.13;;;3.20;;
14933;SDS011;7560;51.364;12.384;2023-11-18T02:55:39;4.82;;;3.20;;
14933;SDS011;7560;51.364;12.384;2023-11-18T03:00:42;4.72;;;3.20;;
14933;SDS011;7560;51.364;12.384;2023-11-18T03:05:45;5.18;;;3.35;;
14933;SDS011;7560;51.364;12.384;2023-11-18T03:10:49;5.78;;;2.97;;
14933;SDS011;7560;51.364;12.384;2023-11-18T03:15:53;4.28;;;3.08;;
14933;SDS011;7560;51.364;12.384;2023-11-18T03:20:55;5.95;;;3.25;;
14933;SDS011;7560;51.364;12.384;2023-11-18T03:25:57;6.03;;;3.50;;
14933;SDS011;7560;51.364;12.384;2023-11-18T03:30:59;6.13;;;3.35;;
14933;SDS011;7560;51.364;12.384;2023-11-18T03:36:01;5.63;;;3.30;;
14933;SDS011;7560;51.364;12.384;2023-11-18T03:41:02;5.20;;;3.50;;
14933;SDS011;7560;51.364;12.384;2023-11-18T03:46:04;7.72;;;3.90;;
14933;SDS011;7560;51.364;12.384;2023-11-18T03:51:08;6.00;;;4.10;;
14933;SDS011;7560;51.364;12.384;2023-11-18T03:56:10;5.15;;;3.50;;
14933;SDS011;7560;51.364;12.384;2023-11-18T04:01:20;5.47;;;3.70;;
14933;SDS011;7560;51.364;12.384;2023-11-18T04:06:28;5.97;;;3.80;;
14933;SDS011;7560;51.364;12.384;2023-11-18T04:11:30;7.07;;;3.80;;
14933;SDS011;7560;51.364;12.384;2023-11-18T04:16:32;7.82;;;4.28;;
14933;SDS011;7560;51.364;12.384;2023-11-18T04:21:34;6.57;;;4.10;;
14933;SDS011;7560;51.364;12.384;2023-11-18T04:26:36;6.70;;;4.07;;
14933;SDS011;7560;51.364;12.384;2023-11-18T04:31:38;6.97;;;4.15;;
14933;SDS011;7560;51.364;12.384;2023-11-18T04:36:43;7.22;;;4.82;;
14933;SDS011;7560;51.364;12.384;2023-11-18T04:41:44;7.57;;;4.57;;
14933;SDS011;7560;51.364;12.384;2023-11-18T04:46:47;8.05;;;4.53;;
14933;SDS011;7560;51.364;12.384;2023-11-18T04:51:49;8.25;;;4.57;;
14933;SDS011;7560;51.364;12.384;2023-11-18T04:56:51;9.50;;;5.32;;
14933;SDS011;7560;51.364;12.384;2023-11-18T05:01:53;7.10;;;4.75;;
14933;SDS011;7560;51.364;12.384;2023-11-18T05:06:55;8.57;;;4.97;;
14933;SDS011;7560;51.364;12.384;2023-11-18T05:11:57;8.70;;;4.82;;
14933;SDS011;7560;51.364;12.384;2023-11-18T05:16:59;7.65;;;4.63;;
14933;SDS011;7560;51.364;12.384;2023-11-18T05:22:04;8.43;;;5.70;;
14933;SDS011;7560;51.364;12.384;2023-11-18T05:27:06;10.00;;;5.70;;
14933;SDS011;7560;51.364;12.384;2023-11-18T05:32:08;9.52;;;5.28;;
14933;SDS011;7560;51.364;12.384;2023-11-18T05:37:10;9.85;;;5.72;;
14933;SDS011;7560;51.364;12.384;2023-11-18T05:42:12;10.15;;;5.75;;
14933;SDS011;7560;51.364;12.384;2023-11-18T05:47:14;8.90;;;5.57;;
14933;SDS011;7560;51.364;12.384;2023-11-18T05:52:15;9.23;;;5.70;;
14933;SDS011;7560;51.364;12.384;2023-11-18T05:57:18;10.63;;;6.45;;
14933;SDS011;7560;51.364;12.384;2023-11-18T06:02:20;12.00;;;6.82;;
14933;SDS011;7560;51.364;12.384;2023-11-18T06:07:23;11.32;;;6.82;;
14933;SDS011;7560;51.364;12.384;2023-11-18T06:12:24;13.05;;;7.50;;
14933;SDS011;7560;51.364;12.384;2023-11-18T06:17:28;12.05;;;7.55;;
14933;SDS011;7560;51.364;12.384;2023-11-18T06:22:30;13.02;;;8.23;;
14933;SDS011;7560;51.364;12.384;2023-11-18T06:27:31;13.60;;;8.52;;
14933;SDS011;7560;51.364;12.384;2023-11-18T06:32:33;16.92;;;9.27;;
14933;SDS011;7560;51.364;12.384;2023-11-18T06:37:35;16.60;;;9.57;;
14933;SDS011;7560;51.364;12.384;2023-11-18T06:42:37;19.25;;;9.38;;
14933;SDS011;7560;51.364;12.384;2023-11-18T06:47:40;15.50;;;9.45;;
14933;SDS011;7560;51.364;12.384;2023-11-18T06:52:46;20.10;;;10.90;;
14933;SDS011;7560;51.364;12.384;2023-11-18T06:57:48;20.13;;;11.60;;
14933;SDS011;7560;51.364;12.384;2023-11-18T07:02:50;15.35;;;9.95;;
14933;SDS011;7560;51.364;12.384;2023-11-18T07:07:52;18.02;;;11.18;;
14933;SDS011;7560;51.364;12.384;2023-11-18T07:12:54;18.70;;;11.02;;
14933;SDS011;7560;51.364;12.384;2023-11-18T07:17:56;19.92;;;11.25;;
14933;SDS011;7560;51.364;12.384;2023-11-18T07:22:58;21.65;;;11.95;;
14933;SDS011;7560;51.364;12.384;2023-11-18T07:28:01;23.67;;;12.57;;
14933;SDS011;7560;51.364;12.384;2023-11-18T07:33:03;21.50;;;11.43;;
14933;SDS011;7560;51.364;12.384;2023-11-18T07:38:06;20.20;;;11.20;;
14933;SDS011;7560;51.364;12.384;2023-11-18T07:43:08;20.52;;;11.93;;
14933;SDS011;7560;51.364;12.384;2023-11-18T07:48:11;19.75;;;11.60;;
14933;SDS011;7560;51.364;12.384;2023-11-18T07:53:13;20.70;;;11.55;;
14933;SDS011;7560;51.364;12.384;2023-11-18T07:58:15;19.50;;;11.18;;
14933;SDS011;7560;51.364;12.384;2023-11-18T08:03:19;21.17;;;11.07;;
14933;SDS011;7560;51.364;12.384;2023-11-18T08:08:21;20.38;;;11.20;;
14933;SDS011;7560;51.364;12.384;2023-11-18T08:13:23;18.77;;;10.45;;
14933;SDS011;7560;51.364;12.384;2023-11-18T08:18:25;25.25;;;12.85;;
14933;SDS011;7560;51.364;12.384;2023-11-18T08:23:28;18.85;;;10.43;;
14933;SDS011;7560;51.364;12.384;2023-11-18T08:28:30;19.65;;;11.50;;
14933;SDS011;7560;51.364;12.384;2023-11-18T08:33:32;19.42;;;10.90;;
14933;SDS011;7560;51.364;12.384;2023-11-18T08:38:35;16.63;;;10.27;;
14933;SDS011;7560;51.364;12.384;2023-11-18T08:43:36;19.20;;;10.70;;
14933;SDS011;7560;51.364;12.384;2023-11-18T08:48:38;23.08;;;11.77;;
14933;SDS011;7560;51.364;12.384;2023-11-18T08:53:40;19.13;;;9.70;;
14933;SDS011;7560;51.364;12.384;2023-11-18T08:58:46;19.40;;;10.43;;
14933;SDS011;7560;51.364;12.384;2023-11-18T09:03:50;20.67;;;10.93;;
14933;SDS011;7560;51.364;12.384;2023-11-18T09:08:54;19.20;;;10.93;;
14933;SDS011;7560;51.364;12.384;2023-11-18T09:13:59;19.63;;;11.35;;
14933;SDS011;7560;51.364;12.384;2023-11-18T09:19:03;17.65;;;10.55;;
14933;SDS011;7560;51.364;12.384;2023-11-18T09:24:07;20.35;;;10.27;;
14933;SDS011;7560;51.364;12.384;2023-11-18T09:29:13;20.98;;;11.60;;
14933;SDS011;7560;51.364;12.384;2023-11-18T09:34:19;18.67;;;10.63;;
14933;SDS011;7560;51.364;12.384;2023-11-18T09:39:28;20.98;;;10.65;;
14933;SDS011;7560;51.364;12.384;2023-11-18T09:44:39;13.98;;;8.00;;
14933;SDS011;7560;51.364;12.384;2023-11-18T09:49:44;16.40;;;9.38;;
14933;SDS011;7560;51.364;12.384;2023-11-18T10:00:00;15.38;;;8.63;;
14933;SDS011;7560;51.364;12.384;2023-11-18T10:05:30;16.25;;;9.70;;
14933;SDS011;7560;51.364;12.384;2023-11-18T10:10:33;14.63;;;9.07;;
14933;SDS011;7560;51.364;12.384;2023-11-18T10:15:38;18.02;;;11.05;;
14933;SDS011;7560;51.364;12.384;2023-11-18T10:20:44;15.18;;;9.00;;
14933;SDS011;7560;51.364;12.384;2023-11-18T10:25:48;13.57;;;7.35;;
14933;SDS011;7560;51.364;12.384;2023-11-18T10:30:59;12.65;;;7.13;;
14933;SDS011;7560;51.364;12.384;2023-11-18T10:36:05;9.38;;;6.03;;
14933;SDS011;7560;51.364;12.384;2023-11-18T10:41:14;9.45;;;5.38;;
14933;SDS011;7560;51.364;12.384;2023-11-18T10:46:18;8.90;;;2.92;;
14933;SDS011;7560;51.364;12.384;2023-11-18T10:51:22;7.18;;;4.60;;
14933;SDS011;7560;51.364;12.384;2023-11-18T10:56:27;7.90;;;5.30;;
14933;SDS011;7560;51.364;12.384;2023-11-18T11:01:37;11.20;;;5.72;;
14933;SDS011;7560;51.364;12.384;2023-11-18T11:06:45;13.48;;;8.57;;
14933;SDS011;7560;51.364;12.384;2023-11-18T11:11:57;8.52;;;5.47;;
14933;SDS011;7560;51.364;12.384;2023-11-18T11:17:06;6.93;;;4.60;;
14933;SDS011;7560;51.364;12.384;2023-11-18T11:22:17;7.63;;;5.28;;
14933;SDS011;7560;51.364;12.384;2023-11-18T11:27:28;11.10;;;6.82;;
14933;SDS011;7560;51.364;12.384;2023-11-18T11:32:50;10.55;;;6.90;;
14933;SDS011;7560;51.364;12.384;2023-11-18T11:37:54;11.65;;;7.55;;
14933;SDS011;7560;51.364;12.384;2023-11-18T11:43:06;12.93;;;7.78;;
14933;SDS011;7560;51.364;12.384;2023-11-18T11:48:11;16.33;;;9.18;;
14933;SDS011;7560;51.364;12.384;2023-11-18T11:53:21;11.85;;;8.07;;
14933;SDS011;7560;51.364;12.384;2023-11-18T12:03:38;11.32;;;7.72;;
14933;SDS011;7560;51.364;12.384;2023-11-18T12:08:46;13.35;;;7.82;;
14933;SDS011;7560;51.364;12.384;2023-11-18T12:19:30;12.43;;;7.82;;
14933;SDS011;7560;51.364;12.384;2023-11-18T12:30:00;13.77;;;8.05;;
14933;SDS011;7560;51.364;12.384;2023-11-18T12:35:01;9.30;;;6.72;;
14933;SDS011;7560;51.364;12.384;2023-11-18T12:50:55;8.15;;;5.88;;
14933;SDS011;7560;51.364;12.384;2023-11-18T12:55:57;9.20;;;5.78;;
14933;SDS011;7560;51.364;12.384;2023-11-18T13:01:00;8.98;;;6.15;;
14933;SDS011;7560;51.364;12.384;2023-11-18T13:06:04;11.90;;;7.70;;
14933;SDS011;7560;51.364;12.384;2023-11-18T13:11:07;8.32;;;5.78;;
14933;SDS011;7560;51.364;12.384;2023-11-18T13:16:13;10.27;;;6.53;;
14933;SDS011;7560;51.364;12.384;2023-11-18T13:21:16;9.60;;;5.72;;
14933;SDS011;7560;51.364;12.384;2023-11-18T13:26:19;9.63;;;5.80;;
14933;SDS011;7560;51.364;12.384;2023-11-18T13:31:22;9.02;;;6.18;;
14933;SDS011;7560;51.364;12.384;2023-11-18T13:36:24;10.75;;;6.28;;
14933;SDS011;7560;51.364;12.384;2023-11-18T13:41:29;9.85;;;6.40;;
14933;SDS011;7560;51.364;12.384;2023-11-18T13:46:33;8.60;;;5.63;;
14933;SDS011;7560;51.364;12.384;2023-11-18T13:51:35;11.32;;;6.35;;
14933;SDS011;7560;51.364;12.384;2023-11-18T13:56:37;11.18;;;6.55;;
14933;SDS011;7560;51.364;12.384;2023-11-18T14:01:39;10.25;;;6.47;;
14933;SDS011;7560;51.364;12.384;2023-11-18T14:06:41;10.93;;;6.32;;
14933;SDS011;7560;51.364;12.384;2023-11-18T14:11:43;11.40;;;7.07;;
14933;SDS011;7560;51.364;12.384;2023-11-18T14:16:46;14.30;;;6.95;;
14933;SDS011;7560;51.364;12.384;2023-11-18T14:21:48;11.05;;;6.53;;
14933;SDS011;7560;51.364;12.384;2023-11-18T14:26:50;10.20;;;7.13;;
14933;SDS011;7560;51.364;12.384;2023-11-18T14:31:52;10.77;;;5.82;;
14933;SDS011;7560;51.364;12.384;2023-11-18T14:36:54;10.43;;;6.65;;
14933;SDS011;7560;51.364;12.384;2023-11-18T14:41:57;11.95;;;7.70;;
14933;SDS011;7560;51.364;12.384;2023-11-18T14:47:00;10.40;;;6.80;;
14933;SDS011;7560;51.364;12.384;2023-11-18T14:52:02;11.27;;;7.47;;
14933;SDS011;7560;51.364;12.384;2023-11-18T14:57:04;17.90;;;9.85;;
14933;SDS011;7560;51.364;12.384;2023-11-18T15:02:06;12.10;;;7.68;;
14933;SDS011;7560;51.364;12.384;2023-11-18T15:07:09;13.02;;;7.47;;
14933;SDS011;7560;51.364;12.384;2023-11-18T15:12:11;12.73;;;7.63;;
14933;SDS011;7560;51.364;12.384;2023-11-18T15:17:14;12.15;;;8.55;;
14933;SDS011;7560;51.364;12.384;2023-11-18T15:22:16;13.38;;;8.18;;
14933;SDS011;7560;51.364;12.384;2023-11-18T15:27:18;15.80;;;10.10;;
14933;SDS011;7560;51.364;12.384;2023-11-18T15:32:21;14.13;;;8.38;;
14933;SDS011;7560;51.364;12.384;2023-11-18T15:37:23;14.23;;;8.63;;
14933;SDS011;7560;51.364;12.384;2023-11-18T15:42:25;14.38;;;8.98;;
14933;SDS011;7560;51.364;12.384;2023-11-18T15:47:29;13.88;;;9.05;;
14933;SDS011;7560;51.364;12.384;2023-11-18T15:52:32;14.38;;;9.18;;
14933;SDS011;7560;51.364;12.384;2023-11-18T15:57:36;15.73;;;8.82;;
14933;SDS011;7560;51.364;12.384;2023-11-18T16:02:39;14.13;;;9.25;;
14933;SDS011;7560;51.364;12.384;2023-11-18T16:07:42;14.48;;;9.35;;
14933;SDS011;7560;51.364;12.384;2023-11-18T16:12:45;13.10;;;8.98;;
14933;SDS011;7560;51.364;12.384;2023-11-18T16:17:53;15.38;;;9.73;;
14933;SDS011;7560;51.364;12.384;2023-11-18T16:22:55;15.50;;;9.38;;
14933;SDS011;7560;51.364;12.384;2023-11-18T16:27:59;17.92;;;10.25;;
14933;SDS011;7560;51.364;12.384;2023-11-18T16:33:01;17.60;;;10.32;;
14933;SDS011;7560;51.364;12.384;2023-11-18T16:38:05;19.40;;;10.57;;
14933;SDS011;7560;51.364;12.384;2023-11-18T16:43:09;18.23;;;11.10;;
14933;SDS011;7560;51.364;12.384;2023-11-18T16:48:11;21.25;;;11.07;;
14933;SDS011;7560;51.364;12.384;2023-11-18T16:53:13;20.02;;;11.10;;
14933;SDS011;7560;51.364;12.384;2023-11-18T16:58:16;19.58;;;11.20;;
14933;SDS011;7560;51.364;12.384;2023-11-18T17:03:17;18.33;;;10.85;;
14933;SDS011;7560;51.364;12.384;2023-11-18T17:08:19;16.95;;;10.25;;
14933;SDS011;7560;51.364;12.384;2023-11-18T17:13:21;17.92;;;9.77;;
14933;SDS011;7560;51.364;12.384;2023-11-18T17:18:23;16.02;;;8.73;;
14933;SDS011;7560;51.364;12.384;2023-11-18T17:23:25;13.82;;;8.27;;
14933;SDS011;7560;51.364;12.384;2023-11-18T17:28:27;13.85;;;9.10;;
14933;SDS011;7560;51.364;12.384;2023-11-18T17:33:29;13.90;;;8.52;;
14933;SDS011;7560;51.364;12.384;2023-11-18T17:38:32;17.77;;;9.15;;
14933;SDS011;7560;51.364;12.384;2023-11-18T17:43:34;16.80;;;9.48;;
14933;SDS011;7560;51.364;12.384;2023-11-18T17:48:36;18.58;;;10.65;;
14933;SDS011;7560;51.364;12.384;2023-11-18T17:53:38;14.30;;;8.70;;
14933;SDS011;7560;51.364;12.384;2023-11-18T17:58:40;14.05;;;7.97;;
14933;SDS011;7560;51.364;12.384;2023-11-18T18:03:42;11.20;;;7.95;;
14933;SDS011;7560;51.364;12.384;2023-11-18T18:08:44;12.10;;;6.90;;
14933;SDS011;7560;51.364;12.384;2023-11-18T18:13:46;10.23;;;6.13;;
14933;SDS011;7560;51.364;12.384;2023-11-18T18:18:47;11.38;;;6.85;;
14933;SDS011;7560;51.364;12.384;2023-11-18T18:23:49;8.35;;;5.70;;
14933;SDS011;7560;51.364;12.384;2023-11-18T18:28:51;8.52;;;5.72;;
14933;SDS011;7560;51.364;12.384;2023-11-18T18:33:56;11.95;;;6.90;;
14933;SDS011;7560;51.364;12.384;2023-11-18T18:38:58;12.38;;;6.72;;
14933;SDS011;7560;51.364;12.384;2023-11-18T18:44:00;10.25;;;6.18;;
14933;SDS011;7560;51.364;12.384;2023-11-18T18:49:03;10.63;;;5.63;;
14933;SDS011;7560;51.364;12.384;2023-11-18T18:54:04;11.02;;;6.47;;
14933;SDS011;7560;51.364;12.384;2023-11-18T18:59:06;9.68;;;6.25;;
14933;SDS011;7560;51.364;12.384;2023-11-18T19:04:12;9.60;;;6.28;;
14933;SDS011;7560;51.364;12.384;2023-11-18T19:09:14;10.43;;;6.22;;
14933;SDS011;7560;51.364;12.384;2023-11-18T19:14:18;9.40;;;5.95;;
14933;SDS011;7560;51.364;12.384;2023-11-18T19:19:20;9.68;;;6.43;;
14933;SDS011;7560;51.364;12.384;2023-11-18T19:24:22;11.85;;;6.50;;
14933;SDS011;7560;51.364;12.384;2023-11-18T19:29:24;12.95;;;7.90;;
14933;SDS011;7560;51.364;12.384;2023-11-18T19:34:26;12.10;;;7.25;;
14933;SDS011;7560;51.364;12.384;2023-11-18T19:39:28;10.15;;;7.22;;
14933;SDS011;7560;51.364;12.384;2023-11-18T19:44:30;10.85;;;7.40;;
14933;SDS011;7560;51.364;12.384;2023-11-18T19:49:32;12.40;;;8.05;;
14933;SDS011;7560;51.364;12.384;2023-11-18T19:54:35;17.92;;;10.18;;
14933;SDS011;7560;51.364;12.384;2023-11-18T19:59:37;12.82;;;7.88;;
14933;SDS011;7560;51.364;12.384;2023-11-18T20:04:39;13.38;;;8.20;;
14933;SDS011;7560;51.364;12.384;2023-11-18T20:09:43;12.05;;;8.32;;
14933;SDS011;7560;51.364;12.384;2023-11-18T20:14:45;12.65;;;8.10;;
14933;SDS011;7560;51.364;12.384;2023-11-18T20:19:47;11.82;;;7.10;;
14933;SDS011;7560;51.364;12.384;2023-11-18T20:24:49;11.50;;;8.05;;
14933;SDS011;7560;51.364;12.384;2023-11-18T20:29:51;12.88;;;8.35;;
14933;SDS011;7560;51.364;12.384;2023-11-18T20:34:52;13.68;;;8.63;;
14933;SDS011;7560;51.364;12.384;2023-11-18T20:39:54;11.45;;;7.72;;
14933;SDS011;7560;51.364;12.384;2023-11-18T20:44:58;13.65;;;8.93;;
14933;SDS011;7560;51.364;12.384;2023-11-18T20:50:00;11.80;;;7.93;;
14933;SDS011;7560;51.364;12.384;2023-11-18T20:55:02;12.63;;;7.85;;
14933;SDS011;7560;51.364;12.384;2023-11-18T21:00:07;12.48;;;8.30;;
14933;SDS011;7560;51.364;12.384;2023-11-18T21:05:10;13.45;;;8.55;;
14933;SDS011;7560;51.364;12.384;2023-11-18T21:10:14;13.80;;;9.07;;
14933;SDS011;7560;51.364;12.384;2023-11-18T21:15:18;12.15;;;8.13;;
14933;SDS011;7560;51.364;12.384;2023-11-18T21:20:21;10.55;;;6.78;;
14933;SDS011;7560;51.364;12.384;2023-11-18T21:25:23;12.13;;;7.57;;
14933;SDS011;7560;51.364;12.384;2023-11-18T21:30:25;10.75;;;6.70;;
14933;SDS011;7560;51.364;12.384;2023-11-18T21:35:27;9.77;;;6.68;;
14933;SDS011;7560;51.364;12.384;2023-11-18T21:40:32;9.85;;;6.43;;
14933;SDS011;7560;51.364;12.384;2023-11-18T21:45:34;12.80;;;7.47;;
14933;SDS011;7560;51.364;12.384;2023-11-18T21:50:39;9.60;;;6.18;;
14933;SDS011;7560;51.364;12.384;2023-11-18T21:55:41;14.30;;;6.95;;
14933;SDS011;7560;51.364;12.384;2023-11-18T22:00:43;7.82;;;5.22;;
14933;SDS011;7560;51.364;12.384;2023-11-18T22:05:46;8.75;;;5.43;;
14933;SDS011;7560;51.364;12.384;2023-11-18T22:10:48;7.78;;;4.88;;
14933;SDS011;7560;51.364;12.384;2023-11-18T22:15:50;9.32;;;5.45;;
14933;SDS011;7560;51.364;12.384;2023-11-18T22:20:52;9.13;;;5.50;;
14933;SDS011;7560;51.364;12.384;2023-11-18T22:25:53;7.10;;;4.70;;
14933;SDS011;7560;51.364;12.384;2023-11-18T22:30:55;7.45;;;5.03;;
14933;SDS011;7560;51.364;12.384;2023-11-18T22:35:57;7.93;;;5.25;;
14933;SDS011;7560;51.364;12.384;2023-11-18T22:40:59;8.18;;;4.75;;
14933;SDS011;7560;51.364;12.384;2023-11-18T22:46:01;8.13;;;5.30;;
14933;SDS011;7560;51.364;12.384;2023-11-18T22:51:03;7.38;;;5.00;;
14933;SDS011;7560;51.364;12.384;2023-11-18T22:56:06;7.60;;;5.35;;
14933;SDS011;7560;51.364;12.384;2023-11-18T23:01:08;8.23;;;5.38;;
14933;SDS011;7560;51.364;12.384;2023-11-18T23:06:13;8.57;;;5.18;;
14933;SDS011;7560;51.364;12.384;2023-11-18T23:11:21;8.40;;;5.07;;
14933;SDS011;7560;51.364;12.384;2023-11-18T23:16:24;6.30;;;4.53;;
14933;SDS011;7560;51.364;12.384;2023-11-18T23:21:26;6.75;;;4.30;;
14933;SDS011;7560;51.364;12.384;2023-11-18T23:26:30;5.45;;;3.88;;
14933;SDS011;7560;51.364;12.384;2023-11-18T23:31:32;5.68;;;3.97;;
14933;SDS011;7560;51.364;12.384;2023-11-18T23:36:34;5.47;;;3.95;;
14933;SDS011;7560;51.364;12.384;2023-11-18T23:41:35;6.32;;;3.58;;
14933;SDS011;7560;51.364;12.384;2023-11-18T23:46:37;5.22;;;3.33;;
14933;SDS011;7560;51.364;12.384;2023-11-18T23:51:39;4.93;;;3.28;;
14933;SDS011;7560;51.364;12.384;2023-11-18T23:56:41;4.80;;;3.05;;
